Time;durP1;ratioP1;P1;durP2;ratioP2;P2;SDS_P1;SDS_P2;PMS_P1;PMS_P2;Temp;Humidity;BMP_temperature;BMP_pressure;BME280_temperature;BME280_humidity;BME280_pressure;Samples;Min_cycle;Max_cycle;Signal;HPM_P1;HPM_P2
2024/01/25 00:01:47;;;;;;;28.95;6.07;;;10.80;73.00;;;;;;5105161;27;20028;-73
2024/01/25 00:04:13;;;;;;;20.63;5.25;;;10.80;72.90;;;;;;5095199;28;20032;-73
2024/01/25 00:06:38;;;;;;;19.23;5.50;;;10.70;72.90;;;;;;5087198;28;20035;-73
2024/01/25 00:09:04;;;;;;;22.75;5.95;;;10.70;72.90;;;;;;5095588;28;20024;-73
2024/01/25 00:11:31;;;;;;;24.27;4.55;;;10.70;72.90;;;;;;5095957;28;20051;-73
2024/01/25 00:13:57;;;;;;;30.70;6.30;;;10.60;72.90;;;;;;5094852;28;20103;-72
2024/01/25 00:16:23;;;;;;;22.85;4.68;;;10.70;73.00;;;;;;5094856;28;20020;-72
2024/01/25 00:18:49;;;;;;;20.58;5.18;;;10.60;72.90;;;;;;5095408;28;20133;-72
2024/01/25 00:21:15;;;;;;;17.30;4.68;;;10.50;72.90;;;;;;5087140;28;20457;-73
2024/01/25 00:23:40;;;;;;;21.60;5.47;;;10.50;72.90;;;;;;5095884;28;20364;-72
2024/01/25 00:26:06;;;;;;;21.55;4.75;;;10.50;73.60;;;;;;5093744;28;20146;-73
2024/01/25 00:28:33;;;;;;;21.45;4.68;;;10.50;73.00;;;;;;5094880;28;20528;-72
2024/01/25 00:30:59;;;;;;;16.00;4.45;;;10.50;73.00;;;;;;5094123;28;20020;-72
2024/01/25 00:33:25;;;;;;;17.67;4.72;;;10.40;72.90;;;;;;5077719;28;20023;-72
2024/01/25 00:35:51;;;;;;;20.35;4.15;;;10.40;72.90;;;;;;5094213;28;20019;-73
2024/01/25 00:38:17;;;;;;;21.98;4.82;;;10.40;72.90;;;;;;5094164;28;20036;-72
2024/01/25 00:40:43;;;;;;;19.63;4.75;;;10.40;72.90;;;;;;5092640;28;20456;-72
2024/01/25 00:43:09;;;;;;;25.27;5.90;;;10.30;72.90;;;;;;5095973;28;20024;-72
2024/01/25 00:45:35;;;;;;;19.92;4.90;;;10.30;72.90;;;;;;5094581;28;20051;-72
2024/01/25 00:48:01;;;;;;;23.67;5.03;;;10.30;72.90;;;;;;5093601;28;20067;-72
2024/01/25 00:50:27;;;;;;;19.70;4.00;;;10.30;72.80;;;;;;5094262;28;20020;-73
2024/01/25 00:52:53;;;;;;;22.63;4.60;;;10.20;72.80;;;;;;5095626;28;20405;-73
2024/01/25 00:55:21;;;;;;;17.08;4.65;;;10.30;72.80;;;;;;5093701;28;20097;-72
2024/01/25 00:57:47;;;;;;;18.40;3.83;;;10.30;72.80;;;;;;5093758;28;20040;-72
2024/01/25 01:00:13;;;;;;;22.80;5.38;;;10.20;72.80;;;;;;5093315;28;20121;-73
2024/01/25 01:02:47;;;;;;;22.48;5.05;;;10.20;72.80;;;;;;5094614;28;20032;-72
2024/01/25 01:05:13;;;;;;;20.48;4.35;;;10.10;72.80;;;;;;5094483;28;20433;-72
2024/01/25 01:07:42;;;;;;;13.52;3.80;;;10.10;72.80;;;;;;5093462;28;20038;-72
2024/01/25 01:10:09;;;;;;;17.80;3.80;;;10.10;72.80;;;;;;5093383;28;20031;-72
2024/01/25 01:12:35;;;;;;;18.27;5.03;;;10.10;72.80;;;;;;5076220;28;20126;-72
2024/01/25 01:15:01;;;;;;;16.77;3.65;;;10.10;72.80;;;;;;5094587;28;20103;-73
2024/01/25 01:17:27;;;;;;;14.68;5.00;;;10.10;72.80;;;;;;5094416;28;20115;-73
2024/01/25 01:19:53;;;;;;;18.98;4.78;;;10.10;72.90;;;;;;5093414;28;20024;-72
2024/01/25 01:22:19;;;;;;;17.85;4.78;;;10.10;72.80;;;;;;5093598;28;20111;-72
2024/01/25 01:24:44;;;;;;;17.33;4.35;;;10.00;72.80;;;;;;5092177;28;20028;-72
2024/01/25 01:27:10;;;;;;;17.13;4.10;;;10.00;72.80;;;;;;5094115;28;20020;-72
2024/01/25 01:29:36;;;;;;;17.08;4.70;;;10.00;72.80;;;;;;5093389;28;20058;-73
2024/01/25 01:32:02;;;;;;;18.05;4.43;;;10.00;72.90;;;;;;5094331;28;20437;-72
2024/01/25 01:34:28;;;;;;;23.70;4.07;;;9.90;72.80;;;;;;5103864;27;20035;-72
2024/01/25 01:36:54;;;;;;;21.90;5.22;;;9.90;72.80;;;;;;5076604;28;20020;-72
2024/01/25 01:39:19;;;;;;;21.35;4.53;;;9.90;72.80;;;;;;5092459;28;20052;-72
2024/01/25 01:41:49;;;;;;;14.63;3.78;;;9.90;72.90;;;;;;5093025;28;20440;-72
2024/01/25 01:44:15;;;;;;;14.15;3.95;;;9.90;72.80;;;;;;5092222;28;20032;-72
2024/01/25 01:46:42;;;;;;;17.13;4.32;;;9.90;72.80;;;;;;5093598;28;20043;-72
2024/01/25 01:49:12;;;;;;;18.33;4.60;;;9.80;72.80;;;;;;5093910;28;20042;-72
2024/01/25 01:51:39;;;;;;;21.27;5.35;;;9.80;72.80;;;;;;5093573;28;20503;-72
2024/01/25 01:54:09;;;;;;;12.88;3.95;;;9.80;72.80;;;;;;5093202;28;20020;-72
2024/01/25 01:56:35;;;;;;;20.13;4.45;;;9.80;72.80;;;;;;5075548;28;20356;-72
2024/01/25 01:59:03;;;;;;;16.63;3.80;;;9.80;72.80;;;;;;5093984;28;20031;-72
2024/01/25 02:01:29;;;;;;;18.83;4.00;;;9.70;72.80;;;;;;5091980;28;20228;-72
2024/01/25 02:03:55;;;;;;;15.52;3.88;;;9.70;72.90;;;;;;5075466;28;20172;-72
2024/01/25 02:06:23;;;;;;;16.33;3.70;;;9.70;72.90;;;;;;5093316;28;20099;-73
2024/01/25 02:08:50;;;;;;;20.65;4.97;;;9.70;72.90;;;;;;5091898;28;20484;-73
2024/01/25 02:11:17;;;;;;;15.70;4.10;;;9.60;72.80;;;;;;5093899;28;20029;-73
2024/01/25 02:13:43;;;;;;;18.67;3.95;;;9.70;73.00;;;;;;5102298;28;20020;-73
2024/01/25 02:16:09;;;;;;;17.77;4.47;;;9.60;72.90;;;;;;5093570;28;20028;-73
2024/01/25 02:18:35;;;;;;;16.58;4.05;;;9.60;73.60;;;;;;5091669;28;20032;-73
2024/01/25 02:21:01;;;;;;;15.50;4.75;;;9.60;73.00;;;;;;5093964;28;20093;-73
2024/01/25 02:23:27;;;;;;;17.35;4.50;;;9.50;73.00;;;;;;5101003;28;20024;-73
2024/01/25 02:25:53;;;;;;;19.05;4.30;;;9.50;73.00;;;;;;5091151;28;20479;-73
2024/01/25 02:28:19;;;;;;;17.55;4.60;;;9.50;73.10;;;;;;5092793;28;20478;-73
2024/01/25 02:30:45;;;;;;;16.92;4.65;;;9.50;73.10;;;;;;5092906;28;20121;-73
2024/01/25 02:33:10;;;;;;;12.63;3.80;;;9.50;73.10;;;;;;5092221;28;20085;-73
2024/01/25 02:35:37;;;;;;;18.58;4.15;;;9.50;73.80;;;;;;5092180;28;20028;-73
2024/01/25 02:38:03;;;;;;;20.73;3.75;;;9.40;73.10;;;;;;5091513;28;20032;-73
2024/01/25 02:40:29;;;;;;;18.27;4.32;;;9.40;73.20;;;;;;5092847;28;20043;-73
2024/01/25 02:42:56;;;;;;;15.60;4.07;;;9.40;73.20;;;;;;5092760;28;20032;-73
2024/01/25 02:45:22;;;;;;;13.98;3.85;;;9.30;73.60;;;;;;5092809;28;20043;-73
2024/01/25 02:47:48;;;;;;;20.00;4.65;;;9.30;73.20;;;;;;5091643;28;20044;-73
2024/01/25 02:50:14;;;;;;;20.10;4.78;;;9.30;73.20;;;;;;5091800;28;20431;-73
2024/01/25 02:52:40;;;;;;;13.88;4.70;;;9.30;73.30;;;;;;5092623;28;20170;-73
2024/01/25 02:55:06;;;;;;;18.92;4.53;;;9.30;73.30;;;;;;5093230;28;20504;-73
2024/01/25 02:57:32;;;;;;;18.02;4.45;;;9.30;73.30;;;;;;5092204;28;20028;-73
2024/01/25 02:59:58;;;;;;;14.52;3.75;;;9.30;73.30;;;;;;5091455;28;20039;-73
2024/01/25 03:02:23;;;;;;;24.65;4.95;;;9.20;73.30;;;;;;5092569;28;20059;-73
2024/01/25 03:04:49;;;;;;;16.10;4.85;;;9.20;73.30;;;;;;5091596;28;20028;-73
2024/01/25 03:07:15;;;;;;;20.38;5.05;;;9.20;73.30;;;;;;5092728;28;20032;-73
2024/01/25 03:09:41;;;;;;;16.90;4.40;;;9.10;73.30;;;;;;5089934;28;20132;-73
2024/01/25 03:12:07;;;;;;;18.95;4.47;;;9.20;73.50;;;;;;5091657;28;20040;-73
2024/01/25 03:14:33;;;;;;;21.55;4.43;;;9.10;73.40;;;;;;5092318;28;20028;-73
2024/01/25 03:16:58;;;;;;;16.67;4.68;;;9.10;73.50;;;;;;5092571;28;20043;-73
2024/01/25 03:19:25;;;;;;;18.48;5.18;;;9.10;73.50;;;;;;5091923;28;20334;-73
2024/01/25 03:21:52;;;;;;;18.60;4.72;;;9.00;73.50;;;;;;5092317;28;20032;-73
2024/01/25 03:24:18;;;;;;;20.98;5.45;;;9.10;73.50;;;;;;5090380;28;20074;-73
2024/01/25 03:26:43;;;;;;;20.45;3.92;;;9.10;73.60;;;;;;5091377;28;20059;-73
2024/01/25 03:29:09;;;;;;;23.42;4.63;;;9.10;73.60;;;;;;5090885;28;20020;-73
2024/01/25 03:31:36;;;;;;;21.02;4.72;;;9.00;73.60;;;;;;5091452;28;20089;-73
2024/01/25 03:34:02;;;;;;;21.95;4.53;;;9.00;73.60;;;;;;5098691;28;20020;-73
2024/01/25 03:36:28;;;;;;;19.23;4.72;;;9.00;73.60;;;;;;5092520;28;20413;-73
2024/01/25 03:38:53;;;;;;;17.85;5.20;;;9.00;73.60;;;;;;5092002;28;20048;-73
2024/01/25 03:41:20;;;;;;;21.98;5.63;;;9.00;73.70;;;;;;5092028;28;21170;-73
2024/01/25 03:43:45;;;;;;;22.17;4.45;;;8.90;73.70;;;;;;5096761;28;20323;-73
2024/01/25 03:46:14;;;;;;;17.48;4.60;;;8.90;73.70;;;;;;5092463;28;20080;-73
2024/01/25 03:48:40;;;;;;;17.50;5.22;;;8.90;73.70;;;;;;5092296;28;20036;-72
2024/01/25 03:51:05;;;;;;;15.00;4.30;;;8.90;73.70;;;;;;5090842;28;20396;-73
2024/01/25 03:53:31;;;;;;;19.17;4.15;;;8.90;73.80;;;;;;5091449;28;20028;-73
2024/01/25 03:55:57;;;;;;;21.42;4.68;;;8.90;73.80;;;;;;5091906;28;20027;-73
2024/01/25 03:58:23;;;;;;;20.92;5.00;;;8.90;73.90;;;;;;5092475;28;20508;-73
2024/01/25 04:00:48;;;;;;;23.02;4.35;;;8.80;73.80;;;;;;5090450;28;20067;-72
2024/01/25 04:03:14;;;;;;;19.27;4.10;;;8.90;73.90;;;;;;5095578;28;20020;-72
2024/01/25 04:05:40;;;;;;;19.05;4.55;;;8.80;73.80;;;;;;5095451;28;20024;-73
2024/01/25 04:08:06;;;;;;;16.33;4.30;;;8.80;73.90;;;;;;5095696;28;20426;-73
2024/01/25 04:10:32;;;;;;;16.08;4.18;;;8.80;73.90;;;;;;5095543;28;20051;-73
2024/01/25 04:13:00;;;;;;;19.33;5.20;;;8.80;73.90;;;;;;5094569;28;20123;-73
2024/01/25 04:15:26;;;;;;;15.32;4.07;;;8.80;74.00;;;;;;5094894;28;20386;-73
2024/01/25 04:17:53;;;;;;;15.88;4.43;;;8.70;73.90;;;;;;5077778;28;20024;-73
2024/01/25 04:20:19;;;;;;;16.08;3.55;;;8.80;74.00;;;;;;5094714;28;20050;-72
2024/01/25 04:22:45;;;;;;;17.13;4.38;;;8.70;74.00;;;;;;5096538;28;20024;-73
2024/01/25 04:25:11;;;;;;;24.25;4.60;;;8.70;74.00;;;;;;5094096;28;20314;-73
2024/01/25 04:27:38;;;;;;;18.23;5.13;;;8.70;74.10;;;;;;5094455;28;20032;-73
2024/01/25 04:30:05;;;;;;;22.98;4.22;;;8.70;74.10;;;;;;5095221;28;20486;-73
2024/01/25 04:32:31;;;;;;;20.27;4.18;;;8.70;74.10;;;;;;5095119;28;20031;-73
2024/01/25 04:34:57;;;;;;;15.30;4.28;;;8.70;74.20;;;;;;5095105;28;20353;-73
2024/01/25 04:37:22;;;;;;;17.27;4.85;;;8.70;74.20;;;;;;5094224;28;20089;-73
2024/01/25 04:39:48;;;;;;;21.85;4.50;;;8.70;74.20;;;;;;5095128;28;20056;-72
2024/01/25 04:42:14;;;;;;;17.67;3.92;;;8.70;74.20;;;;;;5088331;28;20405;-72
2024/01/25 04:44:39;;;;;;;19.13;3.83;;;8.70;74.20;;;;;;5087562;28;20116;-73
2024/01/25 04:47:05;;;;;;;26.23;5.70;;;8.70;74.20;;;;;;5081318;28;20041;-73
2024/01/25 04:49:31;;;;;;;23.00;4.38;;;8.70;74.20;;;;;;5077717;28;20108;-72
2024/01/25 04:51:57;;;;;;;23.45;5.13;;;8.60;74.20;;;;;;5080606;28;20023;-73
2024/01/25 04:54:23;;;;;;;15.35;4.25;;;8.60;74.30;;;;;;5078453;28;20032;-73
2024/01/25 04:56:48;;;;;;;18.33;4.70;;;8.60;74.30;;;;;;5081676;28;20027;-73
2024/01/25 04:59:14;;;;;;;18.15;4.53;;;8.60;74.30;;;;;;5078079;28;20046;-73
2024/01/25 05:01:40;;;;;;;19.05;4.55;;;8.60;74.40;;;;;;5078271;28;20441;-72
2024/01/25 05:04:05;;;;;;;19.95;4.25;;;8.60;74.40;;;;;;5083877;28;20016;-73
2024/01/25 05:06:31;;;;;;;18.60;5.13;;;8.60;74.40;;;;;;5078854;28;20028;-72
2024/01/25 05:08:57;;;;;;;19.40;5.47;;;8.60;74.40;;;;;;5077649;28;20035;-72
2024/01/25 05:11:23;;;;;;;16.38;4.78;;;8.50;74.30;;;;;;5077958;28;20033;-73
2024/01/25 05:13:48;;;;;;;24.38;4.82;;;8.50;75.00;;;;;;5079149;28;20024;-72
2024/01/25 05:16:14;;;;;;;15.68;3.60;;;8.50;74.40;;;;;;5083426;28;20047;-73
2024/01/25 05:18:40;;;;;;;19.40;4.20;;;8.50;74.40;;;;;;5078733;28;20078;-73
2024/01/25 05:21:06;;;;;;;18.75;4.82;;;8.50;74.50;;;;;;5085416;28;20353;-72
2024/01/25 05:23:32;;;;;;;21.42;4.35;;;8.50;74.50;;;;;;5076411;28;20456;-72
2024/01/25 05:25:57;;;;;;;16.83;4.15;;;8.50;74.50;;;;;;5077801;28;20040;-72
2024/01/25 05:28:24;;;;;;;17.23;4.38;;;8.40;74.40;;;;;;5079969;28;20044;-72
2024/01/25 05:30:50;;;;;;;21.52;4.97;;;8.40;74.50;;;;;;5074341;28;20038;-72
2024/01/25 05:33:16;;;;;;;15.95;4.05;;;8.40;74.50;;;;;;5081796;28;20051;-73
2024/01/25 05:35:42;;;;;;;23.15;5.72;;;8.40;74.50;;;;;;5080571;28;20122;-72
2024/01/25 05:38:08;;;;;;;17.73;4.45;;;8.40;74.50;;;;;;5081385;28;20040;-72
2024/01/25 05:40:34;;;;;;;20.38;4.55;;;8.40;74.50;;;;;;5077783;28;20020;-72
2024/01/25 05:43:00;;;;;;;17.33;4.15;;;8.30;74.50;;;;;;5078473;28;20082;-73
2024/01/25 05:45:26;;;;;;;17.92;4.50;;;8.30;74.60;;;;;;5081020;28;20047;-72
2024/01/25 05:47:52;;;;;;;17.58;3.70;;;8.30;74.60;;;;;;5079877;28;20365;-72
2024/01/25 05:50:18;;;;;;;18.50;5.25;;;8.30;74.60;;;;;;5082279;28;20338;-72
2024/01/25 05:52:43;;;;;;;21.00;5.00;;;8.20;74.60;;;;;;5076023;28;20077;-73
2024/01/25 05:55:09;;;;;;;17.15;4.55;;;8.20;74.60;;;;;;5075539;28;20445;-72
2024/01/25 05:57:36;;;;;;;18.83;4.43;;;8.20;74.60;;;;;;5090288;28;20457;-72
2024/01/25 06:00:03;;;;;;;24.27;4.65;;;8.20;74.60;;;;;;5093109;28;20063;-73
2024/01/25 06:02:34;;;;;;;;;;;8.20;74.60;;;;;;5095312;28;20036;-72
2024/01/25 06:05:00;;;;;;;21.33;3.95;;;8.20;74.60;;;;;;5088647;28;19908;-72
2024/01/25 06:07:26;;;;;;;19.17;4.95;;;8.10;74.70;;;;;;5094187;28;20440;-72
2024/01/25 06:09:52;;;;;;;20.50;4.55;;;8.10;74.60;;;;;;5095087;28;20024;-72
2024/01/25 06:12:18;;;;;;;16.67;4.22;;;8.10;74.60;;;;;;5094462;28;20115;-72
2024/01/25 06:14:44;;;;;;;20.08;4.85;;;8.10;74.70;;;;;;5099501;28;20112;-72
2024/01/25 06:17:10;;;;;;;13.73;3.72;;;8.10;74.70;;;;;;5095098;28;20504;-72
2024/01/25 06:19:36;;;;;;;19.52;5.28;;;8.10;74.70;;;;;;5095791;28;20032;-72
2024/01/25 06:22:02;;;;;;;20.38;5.05;;;8.10;74.80;;;;;;5093591;28;20028;-72
2024/01/25 06:24:28;;;;;;;22.27;5.25;;;8.10;74.80;;;;;;5093744;28;20093;-73
2024/01/25 06:26:54;;;;;;;17.33;4.53;;;8.10;74.80;;;;;;5093704;28;20019;-72
2024/01/25 06:29:20;;;;;;;18.35;4.28;;;8.10;74.80;;;;;;5100506;27;20522;-72
2024/01/25 06:31:46;;;;;;;17.55;5.10;;;8.10;74.90;;;;;;5094346;28;20052;-72
2024/01/25 06:34:12;;;;;;;17.98;4.93;;;8.10;74.90;;;;;;5093971;28;20020;-72
2024/01/25 06:36:38;;;;;;;19.83;5.95;;;8.10;74.90;;;;;;5093153;28;20081;-72
2024/01/25 06:39:06;;;;;;;20.83;4.70;;;8.10;75.00;;;;;;5091937;28;20063;-72
2024/01/25 06:41:33;;;;;;;16.55;4.15;;;8.00;75.00;;;;;;5092341;28;20024;-72
2024/01/25 06:43:59;;;;;;;18.77;4.95;;;8.00;74.90;;;;;;5092902;28;20788;-72
2024/01/25 06:46:25;;;;;;;18.90;4.93;;;8.00;75.00;;;;;;5093164;28;20024;-72
2024/01/25 06:48:51;;;;;;;15.38;4.75;;;8.00;75.00;;;;;;5091586;28;20036;-72
2024/01/25 06:51:17;;;;;;;20.65;4.78;;;8.00;75.10;;;;;;5102300;28;20457;-72
2024/01/25 06:53:43;;;;;;;22.48;5.55;;;8.00;75.10;;;;;;5092739;28;20099;-73
2024/01/25 06:56:09;;;;;;;16.20;4.78;;;8.00;75.10;;;;;;5093028;28;20028;-74
2024/01/25 06:58:35;;;;;;;21.60;5.22;;;8.00;75.10;;;;;;5084267;28;20028;-72
2024/01/25 07:01:00;;;;;;;16.58;4.50;;;8.00;75.10;;;;;;5091582;28;20024;-73
2024/01/25 07:03:26;;;;;;;16.08;4.95;;;8.00;75.10;;;;;;5092211;28;20024;-73
2024/01/25 07:05:52;;;;;;;18.02;4.82;;;8.00;75.10;;;;;;5091193;28;20030;-73
2024/01/25 07:08:18;;;;;;;26.08;5.18;;;8.00;75.20;;;;;;5093011;28;20089;-71
2024/01/25 07:10:47;;;;;;;20.08;4.78;;;8.00;75.20;;;;;;5092814;28;20067;-72
2024/01/25 07:13:13;;;;;;;16.08;4.60;;;7.90;75.20;;;;;;5092542;28;20024;-71
2024/01/25 07:15:39;;;;;;;18.38;5.32;;;7.90;75.20;;;;;;5092402;28;20519;-70
2024/01/25 07:18:05;;;;;;;19.88;4.65;;;7.90;75.20;;;;;;5092898;28;20365;-69
2024/01/25 07:20:30;;;;;;;21.02;5.40;;;7.90;75.20;;;;;;5093898;28;20038;-71
2024/01/25 07:22:56;;;;;;;21.50;5.25;;;7.90;75.20;;;;;;5093315;28;20028;-70
2024/01/25 07:25:22;;;;;;;18.25;5.22;;;8.00;75.30;;;;;;5077227;28;20028;-71
2024/01/25 07:27:49;;;;;;;18.25;5.15;;;7.90;75.30;;;;;;5096081;28;20429;-71
2024/01/25 07:30:15;;;;;;;14.05;4.68;;;7.90;75.30;;;;;;5093655;28;20047;-70
2024/01/25 07:32:42;;;;;;;19.27;5.60;;;7.90;75.30;;;;;;5093393;28;20482;-70
2024/01/25 07:35:11;;;;;;;18.77;5.35;;;7.90;75.40;;;;;;5094118;28;20044;-70
2024/01/25 07:37:38;;;;;;;19.00;4.85;;;7.90;75.40;;;;;;5094750;28;20059;-70
2024/01/25 07:40:04;;;;;;;17.25;4.68;;;7.90;75.40;;;;;;5097027;28;20039;-70
2024/01/25 07:42:30;;;;;;;26.65;6.20;;;7.90;75.40;;;;;;5097184;28;20031;-70
2024/01/25 07:44:57;;;;;;;21.65;5.97;;;7.90;75.40;;;;;;5097943;28;20097;-70
2024/01/25 07:47:23;;;;;;;16.63;4.93;;;8.00;75.50;;;;;;5096209;28;20052;-71
2024/01/25 07:49:49;;;;;;;20.42;5.05;;;7.90;75.40;;;;;;5096448;28;20074;-70
2024/01/25 07:52:15;;;;;;;17.60;4.60;;;7.90;75.40;;;;;;5097219;28;20103;-70
2024/01/25 07:54:40;;;;;;;18.27;5.00;;;8.00;75.50;;;;;;5096188;28;20458;-71
2024/01/25 07:57:06;;;;;;;23.58;6.25;;;8.00;75.50;;;;;;5079328;28;20085;-71
2024/01/25 07:59:32;;;;;;;21.83;4.95;;;8.00;75.50;;;;;;5096518;28;20016;-70
2024/01/25 08:01:58;;;;;;;19.58;5.15;;;8.00;75.50;;;;;;5097089;28;20066;-70
2024/01/25 08:04:23;;;;;;;17.40;4.22;;;8.00;75.60;;;;;;5096846;28;20029;-70
2024/01/25 08:06:49;;;;;;;19.02;5.35;;;8.00;75.60;;;;;;5095153;28;20432;-71
2024/01/25 08:09:15;;;;;;;15.73;5.32;;;8.00;75.60;;;;;;5096649;28;20048;-71
2024/01/25 08:11:42;;;;;;;22.45;6.30;;;8.10;75.60;;;;;;5095738;28;20035;-69
2024/01/25 08:14:07;;;;;;;23.33;5.45;;;8.10;75.60;;;;;;5109222;27;20177;-70
2024/01/25 08:16:35;;;;;;;19.83;5.55;;;8.10;75.50;;;;;;5094157;28;20104;-69
2024/01/25 08:19:00;;;;;;;19.40;6.40;;;8.10;75.50;;;;;;5096531;28;20043;-70
2024/01/25 08:21:26;;;;;;;19.30;5.40;;;8.20;75.60;;;;;;5096450;28;20032;-70
2024/01/25 08:23:52;;;;;;;20.63;5.40;;;8.10;75.50;;;;;;5096895;28;20042;-70
2024/01/25 08:26:18;;;;;;;17.70;6.65;;;8.10;75.60;;;;;;5100976;28;20054;-69
2024/01/25 08:28:44;;;;;;;18.27;4.78;;;8.10;75.60;;;;;;5096282;28;20056;-70
2024/01/25 08:31:10;;;;;;;20.45;5.72;;;8.10;75.60;;;;;;5096241;28;20564;-69
2024/01/25 08:33:37;;;;;;;26.42;6.07;;;8.20;75.60;;;;;;5076342;28;20020;-69
2024/01/25 08:36:03;;;;;;;29.08;6.15;;;8.20;75.70;;;;;;5096172;28;20055;-70
2024/01/25 08:38:28;;;;;;;17.60;5.00;;;8.20;75.60;;;;;;5070763;28;20064;-69
2024/01/25 08:40:54;;;;;;;20.48;6.00;;;8.20;75.50;;;;;;5095034;28;20093;-69
2024/01/25 08:43:20;;;;;;;19.90;5.05;;;8.30;75.60;;;;;;5094499;28;20090;-70
2024/01/25 08:45:46;;;;;;;17.58;5.65;;;8.30;75.50;;;;;;5095892;28;20047;-71
2024/01/25 08:48:13;;;;;;;22.38;5.63;;;8.30;75.60;;;;;;5093359;28;20420;-69
2024/01/25 08:50:39;;;;;;;14.70;4.90;;;8.30;75.60;;;;;;5095655;28;20038;-71
2024/01/25 08:53:05;;;;;;;17.45;5.78;;;8.30;75.50;;;;;;5095523;28;20416;-70
2024/01/25 08:55:31;;;;;;;23.67;5.47;;;8.30;76.20;;;;;;5095598;28;20047;-70
2024/01/25 08:57:57;;;;;;;18.65;5.07;;;8.40;75.50;;;;;;5095943;28;20024;-70
2024/01/25 09:00:23;;;;;;;19.67;5.80;;;8.40;75.50;;;;;;5094149;28;20579;-69
2024/01/25 09:02:49;;;;;;;22.83;6.30;;;8.50;75.50;;;;;;5094990;28;20055;-69
2024/01/25 09:05:14;;;;;;;21.65;5.72;;;8.50;75.50;;;;;;5095173;28;20024;-69
2024/01/25 09:07:41;;;;;;;21.02;5.78;;;8.60;75.50;;;;;;5106552;28;20020;-69
2024/01/25 09:10:08;;;;;;;20.85;5.05;;;8.60;75.50;;;;;;5095508;28;20024;-69
2024/01/25 09:12:38;;;;;;;22.98;6.32;;;8.70;75.40;;;;;;5096132;28;20020;-69
2024/01/25 09:15:04;;;;;;;20.65;5.57;;;8.70;75.30;;;;;;5094246;28;20032;-69
2024/01/25 09:17:30;;;;;;;23.33;6.07;;;8.80;75.30;;;;;;5085129;28;20043;-69
2024/01/25 09:19:58;;;;;;;21.15;5.72;;;8.80;75.30;;;;;;5096555;28;20106;-69
2024/01/25 09:22:24;;;;;;;20.40;6.38;;;8.80;75.20;;;;;;5094821;28;20127;-69
2024/01/25 09:24:50;;;;;;;20.98;6.13;;;8.90;75.20;;;;;;5095494;28;20102;-68
2024/01/25 09:27:16;;;;;;;15.13;5.00;;;8.90;75.20;;;;;;5094478;28;20032;-68
2024/01/25 09:29:42;;;;;;;18.65;5.63;;;9.00;75.10;;;;;;5094926;28;20020;-68
2024/01/25 09:32:08;;;;;;;17.77;5.55;;;9.00;75.00;;;;;;5095502;28;20174;-68
2024/01/25 09:34:38;;;;;;;18.25;5.47;;;9.00;75.00;;;;;;5111505;28;20066;-68
2024/01/25 09:37:05;;;;;;;22.15;6.32;;;9.10;75.10;;;;;;5095091;28;20068;-68
2024/01/25 09:39:35;;;;;;;22.75;5.22;;;9.10;75.10;;;;;;5095891;28;20031;-68
2024/01/25 09:42:02;;;;;;;26.30;6.60;;;9.00;75.00;;;;;;5095625;28;20161;-68
2024/01/25 09:44:28;;;;;;;19.90;5.88;;;9.00;75.10;;;;;;5094674;28;20036;-68
2024/01/25 09:46:55;;;;;;;19.27;5.40;;;9.10;75.20;;;;;;5095029;28;20031;-68
2024/01/25 09:49:21;;;;;;;24.90;6.63;;;9.10;75.20;;;;;;5095963;28;20060;-68
2024/01/25 09:51:50;;;;;;;20.80;7.00;;;9.10;75.20;;;;;;5094997;28;20034;-68
2024/01/25 09:54:16;;;;;;;20.80;5.45;;;9.10;75.20;;;;;;5094940;28;20024;-68
2024/01/25 09:56:42;;;;;;;25.15;5.93;;;9.20;75.20;;;;;;5095468;28;20329;-68
2024/01/25 09:59:08;;;;;;;17.92;6.40;;;9.10;75.20;;;;;;5095132;28;20046;-68
2024/01/25 10:01:35;;;;;;;20.95;5.53;;;9.10;75.20;;;;;;5095621;28;20035;-68
2024/01/25 10:04:00;;;;;;;24.77;5.72;;;9.10;75.30;;;;;;5111748;28;20345;-68
2024/01/25 10:06:26;;;;;;;20.80;6.07;;;9.10;75.30;;;;;;5094515;28;20028;-69
2024/01/25 10:08:53;;;;;;;23.70;5.45;;;9.20;75.40;;;;;;5093793;28;20044;-68
2024/01/25 10:11:19;;;;;;;19.38;6.30;;;9.20;75.40;;;;;;5094599;28;20047;-68
2024/01/25 10:13:47;;;;;;;20.98;5.32;;;9.30;75.30;;;;;;5095331;28;20027;-68
2024/01/25 10:16:14;;;;;;;18.08;5.13;;;9.30;75.30;;;;;;5093923;28;20119;-68
2024/01/25 10:18:42;;;;;;;20.13;6.22;;;9.30;75.20;;;;;;5083235;28;20108;-68
2024/01/25 10:21:10;;;;;;;22.77;6.15;;;9.30;75.20;;;;;;5094106;28;20036;-68
2024/01/25 10:23:35;;;;;;;21.55;6.15;;;9.30;75.20;;;;;;5095063;28;20032;-68
2024/01/25 10:26:02;;;;;;;17.90;5.28;;;9.40;75.30;;;;;;5093846;28;20043;-68
2024/01/25 10:28:30;;;;;;;18.38;6.13;;;9.50;75.30;;;;;;5094469;28;20345;-68
2024/01/25 10:31:07;;;;;;;20.10;5.45;;;9.50;75.50;;;;;;5094242;28;20039;-68
2024/01/25 10:33:34;;;;;;;17.88;5.82;;;9.60;75.10;;;;;;5094933;28;20032;-68
2024/01/25 10:36:03;;;;;;;22.00;6.93;;;9.70;75.00;;;;;;5094862;28;20460;-69
2024/01/25 10:38:36;;;;;;;27.25;6.35;;;9.80;74.80;;;;;;5093635;28;20464;-69
2024/01/25 10:41:04;;;;;;;20.48;5.85;;;9.90;74.70;;;;;;5089582;28;20032;-68
2024/01/25 10:43:33;;;;;;;18.83;5.78;;;10.00;74.60;;;;;;5094851;28;20055;-69
2024/01/25 10:45:59;;;;;;;18.30;5.53;;;10.00;74.40;;;;;;5110598;28;20401;-68
2024/01/25 10:48:26;;;;;;;24.38;6.47;;;10.10;74.30;;;;;;5093652;28;20468;-69
2024/01/25 10:50:55;;;;;;;24.17;7.07;;;10.20;74.10;;;;;;5094014;28;20338;-69
2024/01/25 10:53:22;;;;;;;21.45;5.47;;;10.20;74.10;;;;;;5093619;28;20035;-68
2024/01/25 10:55:48;;;;;;;19.83;5.65;;;10.20;74.10;;;;;;5094794;28;20028;-69
2024/01/25 10:58:14;;;;;;;27.45;6.78;;;10.20;74.10;;;;;;5110533;28;20028;-68
2024/01/25 11:00:40;;;;;;;19.08;5.85;;;10.20;74.10;;;;;;5093811;28;20423;-69
2024/01/25 11:03:06;;;;;;;21.33;6.07;;;10.30;74.10;;;;;;5094355;28;20063;-69
2024/01/25 11:05:32;;;;;;;25.50;5.97;;;10.30;74.20;;;;;;5093492;28;20046;-69
2024/01/25 11:07:58;;;;;;;16.50;6.15;;;10.30;74.10;;;;;;5094640;28;20087;-69
2024/01/25 11:10:28;;;;;;;20.27;5.78;;;10.30;74.10;;;;;;5094734;28;20056;-68
2024/01/25 11:13:01;;;;;;;26.17;6.95;;;10.30;74.20;;;;;;5098931;28;20051;-69
2024/01/25 11:15:36;;;;;;;21.05;5.90;;;10.30;74.20;;;;;;5098424;28;20039;-68
2024/01/25 11:18:08;;;;;;;25.52;6.50;;;10.50;74.20;;;;;;5085405;28;20032;-68
2024/01/25 11:20:35;;;;;;;26.13;7.00;;;10.60;73.90;;;;;;5098511;28;20100;-70
2024/01/25 11:23:03;;;;;;;22.70;6.40;;;10.70;73.70;;;;;;5080012;28;20024;-70
2024/01/25 11:25:31;;;;;;;19.63;5.95;;;10.70;73.50;;;;;;5114428;28;20449;-69
2024/01/25 11:27:57;;;;;;;22.70;6.50;;;10.80;73.50;;;;;;5098100;28;20034;-70
2024/01/25 11:30:23;;;;;;;20.80;7.10;;;10.70;73.40;;;;;;5097735;28;20016;-70
2024/01/25 11:32:49;;;;;;;18.77;5.93;;;10.70;73.50;;;;;;5098152;28;20313;-70
2024/01/25 11:35:18;;;;;;;20.98;6.43;;;10.70;73.60;;;;;;5097847;28;20020;-69
2024/01/25 11:37:45;;;;;;;23.80;6.30;;;10.70;73.70;;;;;;5097716;28;20070;-70
2024/01/25 11:40:12;;;;;;;27.63;5.63;;;10.70;73.70;;;;;;5098372;28;20024;-70
2024/01/25 11:42:39;;;;;;;25.10;6.63;;;10.70;73.70;;;;;;5100119;28;20123;-70
2024/01/25 11:45:09;;;;;;;23.02;7.47;;;10.60;73.60;;;;;;5085741;28;20138;-70
2024/01/25 11:47:35;;;;;;;18.67;6.57;;;10.70;73.60;;;;;;5093891;28;20071;-71
2024/01/25 11:50:02;;;;;;;16.67;6.10;;;10.70;73.60;;;;;;5080002;28;20019;-70
2024/01/25 11:52:28;;;;;;;22.00;7.35;;;10.80;73.50;;;;;;5097898;28;20047;-70
2024/01/25 11:54:54;;;;;;;19.55;6.63;;;10.80;73.50;;;;;;5097283;28;20318;-70
2024/01/25 11:57:20;;;;;;;17.70;5.90;;;10.80;73.40;;;;;;5085238;28;20039;-70
2024/01/25 11:59:46;;;;;;;17.20;6.45;;;10.80;73.30;;;;;;5097377;28;20074;-71
2024/01/25 12:02:13;;;;;;;20.95;6.35;;;10.80;73.20;;;;;;5096688;28;20432;-70
2024/01/25 12:04:42;;;;;;;23.00;6.40;;;10.80;73.20;;;;;;5096659;28;20237;-70
2024/01/25 12:07:08;;;;;;;27.27;7.25;;;10.80;73.20;;;;;;5097264;28;20467;-70
2024/01/25 12:09:33;;;;;;;20.45;6.65;;;10.80;73.20;;;;;;5113137;27;20032;-70
2024/01/25 12:12:04;;;;;;;20.48;6.47;;;10.80;73.30;;;;;;5096729;28;20420;-70
2024/01/25 12:14:29;;;;;;;22.83;6.68;;;10.80;73.30;;;;;;5096663;28;20029;-71
2024/01/25 12:16:56;;;;;;;24.48;6.93;;;10.80;73.30;;;;;;5091090;28;20345;-71
2024/01/25 12:19:22;;;;;;;25.63;6.57;;;10.80;73.40;;;;;;5101254;28;20027;-71
2024/01/25 12:21:48;;;;;;;20.73;7.15;;;10.80;73.30;;;;;;5098326;28;20028;-71
2024/01/25 12:24:13;;;;;;;20.73;6.75;;;10.80;73.30;;;;;;5096393;28;20462;-71
2024/01/25 12:26:41;;;;;;;19.30;6.95;;;10.80;73.30;;;;;;5096430;28;20028;-71
2024/01/25 12:29:09;;;;;;;22.75;5.95;;;10.90;73.30;;;;;;5098204;28;20035;-71
2024/01/25 12:31:35;;;;;;;25.20;6.28;;;10.80;73.30;;;;;;5096285;28;20020;-71
2024/01/25 12:34:01;;;;;;;25.42;7.32;;;10.80;73.30;;;;;;5097486;28;20448;-70
2024/01/25 12:36:27;;;;;;;21.88;6.80;;;10.80;73.20;;;;;;5096648;28;20057;-71
2024/01/25 12:38:52;;;;;;;21.33;6.15;;;10.80;73.20;;;;;;5095156;28;20024;-71
2024/01/25 12:41:18;;;;;;;29.50;8.18;;;10.90;73.20;;;;;;5105624;27;20072;-71